sensor_id;sensor_type;location;lat;lon;timestamp;temperature;humidity
7447;DHT22;3765;47.962;7.952;2023-03-01T00:01:20;0.40;65.20
7447;DHT22;3765;47.962;7.952;2023-03-01T00:03:48;0.40;65.30
7447;DHT22;3765;47.962;7.952;2023-03-01T00:06:17;0.60;65.40
7447;DHT22;3765;47.962;7.952;2023-03-01T00:08:45;0.70;65.10
7447;DHT22;3765;47.962;7.952;2023-03-01T00:11:16;0.50;64.90
7447;DHT22;3765;47.962;7.952;2023-03-01T00:13:46;0.50;65.10
7447;DHT22;3765;47.962;7.952;2023-03-01T00:16:16;0.50;65.10
7447;DHT22;3765;47.962;7.952;2023-03-01T00:18:44;0.60;65.10
7447;DHT22;3765;47.962;7.952;2023-03-01T00:21:13;0.50;65.00
7447;DHT22;3765;47.962;7.952;2023-03-01T00:23:41;0.60;65.00
7447;DHT22;3765;47.962;7.952;2023-03-01T00:26:11;0.60;64.90
7447;DHT22;3765;47.962;7.952;2023-03-01T00:28:42;0.70;65.00
7447;DHT22;3765;47.962;7.952;2023-03-01T00:31:12;0.70;65.00
7447;DHT22;3765;47.962;7.952;2023-03-01T00:33:41;0.70;64.90
7447;DHT22;3765;47.962;7.952;2023-03-01T00:36:11;0.60;64.90
7447;DHT22;3765;47.962;7.952;2023-03-01T00:38:40;0.50;65.00
7447;DHT22;3765;47.962;7.952;2023-03-01T00:41:11;0.60;65.10
7447;DHT22;3765;47.962;7.952;2023-03-01T00:43:40;0.70;65.10
7447;DHT22;3765;47.962;7.952;2023-03-01T00:46:12;0.60;65.00
7447;DHT22;3765;47.962;7.952;2023-03-01T00:48:43;0.80;65.30
7447;DHT22;3765;47.962;7.952;2023-03-01T00:51:13;1.00;64.90
7447;DHT22;3765;47.962;7.952;2023-03-01T00:53:42;1.00;64.80
7447;DHT22;3765;47.962;7.952;2023-03-01T00:56:14;1.10;64.70
7447;DHT22;3765;47.962;7.952;2023-03-01T00:58:44;1.10;64.50
7447;DHT22;3765;47.962;7.952;2023-03-01T01:01:18;1.10;64.50
7447;DHT22;3765;47.962;7.952;2023-03-01T01:03:52;1.10;64.50
7447;DHT22;3765;47.962;7.952;2023-03-01T01:06:25;1.10;64.50
7447;DHT22;3765;47.962;7.952;2023-03-01T01:08:56;1.00;64.30
7447;DHT22;3765;47.962;7.952;2023-03-01T01:11:30;1.00;64.40
7447;DHT22;3765;47.962;7.952;2023-03-01T01:14:07;0.90;64.30
7447;DHT22;3765;47.962;7.952;2023-03-01T01:16:38;0.80;64.40
7447;DHT22;3765;47.962;7.952;2023-03-01T01:19:07;0.90;64.50
7447;DHT22;3765;47.962;7.952;2023-03-01T01:21:42;0.80;64.50
7447;DHT22;3765;47.962;7.952;2023-03-01T01:24:17;0.80;64.50
7447;DHT22;3765;47.962;7.952;2023-03-01T01:26:57;0.80;64.60
7447;DHT22;3765;47.962;7.952;2023-03-01T01:29:43;0.90;64.70
7447;DHT22;3765;47.962;7.952;2023-03-01T01:32:16;0.80;64.60
7447;DHT22;3765;47.962;7.952;2023-03-01T01:34:46;0.80;64.70
7447;DHT22;3765;47.962;7.952;2023-03-01T01:37:18;0.70;64.70
7447;DHT22;3765;47.962;7.952;2023-03-01T01:39:48;0.70;64.80
7447;DHT22;3765;47.962;7.952;2023-03-01T01:42:17;0.60;64.80
7447;DHT22;3765;47.962;7.952;2023-03-01T01:47:50;0.60;64.90
7447;DHT22;3765;47.962;7.952;2023-03-01T01:50:21;0.50;64.90
7447;DHT22;3765;47.962;7.952;2023-03-01T01:52:55;0.50;65.00
7447;DHT22;3765;47.962;7.952;2023-03-01T01:55:26;0.50;65.00
7447;DHT22;3765;47.962;7.952;2023-03-01T01:58:02;0.60;65.10
7447;DHT22;3765;47.962;7.952;2023-03-01T02:00:41;0.50;65.00
7447;DHT22;3765;47.962;7.952;2023-03-01T02:03:13;0.30;64.90
7447;DHT22;3765;47.962;7.952;2023-03-01T02:05:50;0.30;65.20
7447;DHT22;3765;47.962;7.952;2023-03-01T02:08:26;0.30;65.20
7447;DHT22;3765;47.962;7.952;2023-03-01T02:10:58;0.20;65.20
7447;DHT22;3765;47.962;7.952;2023-03-01T02:13:38;0.30;65.40
7447;DHT22;3765;47.962;7.952;2023-03-01T02:16:12;0.20;65.30
7447;DHT22;3765;47.962;7.952;2023-03-01T02:18:43;0.30;65.40
7447;DHT22;3765;47.962;7.952;2023-03-01T02:21:29;0.30;65.30
7447;DHT22;3765;47.962;7.952;2023-03-01T02:24:08;0.30;65.20
7447;DHT22;3765;47.962;7.952;2023-03-01T02:26:48;0.30;65.30
7447;DHT22;3765;47.962;7.952;2023-03-01T02:29:33;0.20;65.30
7447;DHT22;3765;47.962;7.952;2023-03-01T02:32:07;0.20;65.40
7447;DHT22;3765;47.962;7.952;2023-03-01T02:34:38;0.20;65.40
7447;DHT22;3765;47.962;7.952;2023-03-01T02:37:13;0.10;65.40
7447;DHT22;3765;47.962;7.952;2023-03-01T02:39:55;0.10;65.50
7447;DHT22;3765;47.962;7.952;2023-03-01T02:42:31;0.00;65.50
7447;DHT22;3765;47.962;7.952;2023-03-01T02:45:21;0.10;65.60
7447;DHT22;3765;47.962;7.952;2023-03-01T02:47:54;0.10;65.60
7447;DHT22;3765;47.962;7.952;2023-03-01T02:50:43;0.10;65.60
7447;DHT22;3765;47.962;7.952;2023-03-01T02:53:23;0.10;65.50
7447;DHT22;3765;47.962;7.952;2023-03-01T02:55:57;0.00;65.60
7447;DHT22;3765;47.962;7.952;2023-03-01T02:58:27;0.00;65.70
7447;DHT22;3765;47.962;7.952;2023-03-01T03:01:10;0.00;65.70
7447;DHT22;3765;47.962;7.952;2023-03-01T03:03:41;0.00;65.90
7447;DHT22;3765;47.962;7.952;2023-03-01T03:06:19;0.00;65.90
7447;DHT22;3765;47.962;7.952;2023-03-01T03:08:53;0.00;66.00
7447;DHT22;3765;47.962;7.952;2023-03-01T03:11:23;0.10;66.00
7447;DHT22;3765;47.962;7.952;2023-03-01T03:13:55;0.20;66.00
7447;DHT22;3765;47.962;7.952;2023-03-01T03:16:34;0.20;66.00
7447;DHT22;3765;47.962;7.952;2023-03-01T03:19:04;0.30;66.00
7447;DHT22;3765;47.962;7.952;2023-03-01T03:21:34;0.30;65.90
7447;DHT22;3765;47.962;7.952;2023-03-01T03:24:06;0.30;65.80
7447;DHT22;3765;47.962;7.952;2023-03-01T03:26:36;0.30;65.90
7447;DHT22;3765;47.962;7.952;2023-03-01T03:29:07;0.40;66.00
7447;DHT22;3765;47.962;7.952;2023-03-01T03:31:41;0.50;65.90
7447;DHT22;3765;47.962;7.952;2023-03-01T03:34:13;0.60;65.90
7447;DHT22;3765;47.962;7.952;2023-03-01T03:36:46;0.60;65.80
7447;DHT22;3765;47.962;7.952;2023-03-01T03:39:18;0.60;65.80
7447;DHT22;3765;47.962;7.952;2023-03-01T03:41:47;0.60;65.70
7447;DHT22;3765;47.962;7.952;2023-03-01T03:44:18;0.70;65.80
7447;DHT22;3765;47.962;7.952;2023-03-01T03:47:00;0.70;65.60
7447;DHT22;3765;47.962;7.952;2023-03-01T03:49:33;0.70;65.70
7447;DHT22;3765;47.962;7.952;2023-03-01T03:52:09;0.70;65.70
7447;DHT22;3765;47.962;7.952;2023-03-01T03:54:43;0.60;65.60
7447;DHT22;3765;47.962;7.952;2023-03-01T03:57:16;0.70;65.70
7447;DHT22;3765;47.962;7.952;2023-03-01T04:00:04;0.80;65.80
7447;DHT22;3765;47.962;7.952;2023-03-01T04:02:42;0.90;65.70
7447;DHT22;3765;47.962;7.952;2023-03-01T04:05:14;0.80;65.70
7447;DHT22;3765;47.962;7.952;2023-03-01T04:07:46;0.80;65.60
7447;DHT22;3765;47.962;7.952;2023-03-01T04:10:17;0.90;65.70
7447;DHT22;3765;47.962;7.952;2023-03-01T04:12:47;1.00;65.60
7447;DHT22;3765;47.962;7.952;2023-03-01T04:15:18;1.00;65.70
7447;DHT22;3765;47.962;7.952;2023-03-01T04:17:54;1.00;65.70
7447;DHT22;3765;47.962;7.952;2023-03-01T04:20:26;1.10;65.70
7447;DHT22;3765;47.962;7.952;2023-03-01T04:22:59;1.20;65.70
7447;DHT22;3765;47.962;7.952;2023-03-01T04:25:40;1.30;65.60
7447;DHT22;3765;47.962;7.952;2023-03-01T04:28:12;1.30;65.40
7447;DHT22;3765;47.962;7.952;2023-03-01T04:30:46;1.40;65.60
7447;DHT22;3765;47.962;7.952;2023-03-01T04:33:17;1.50;65.60
7447;DHT22;3765;47.962;7.952;2023-03-01T04:35:51;1.60;65.50
7447;DHT22;3765;47.962;7.952;2023-03-01T04:38:38;1.60;65.50
7447;DHT22;3765;47.962;7.952;2023-03-01T04:41:09;1.70;65.40
7447;DHT22;3765;47.962;7.952;2023-03-01T04:43:39;1.70;65.40
7447;DHT22;3765;47.962;7.952;2023-03-01T04:46:12;1.80;65.40
7447;DHT22;3765;47.962;7.952;2023-03-01T04:48:55;1.90;65.40
7447;DHT22;3765;47.962;7.952;2023-03-01T04:51:25;1.90;65.20
7447;DHT22;3765;47.962;7.952;2023-03-01T04:54:03;2.00;65.30
7447;DHT22;3765;47.962;7.952;2023-03-01T04:56:36;2.00;65.10
7447;DHT22;3765;47.962;7.952;2023-03-01T04:59:08;2.10;65.20
7447;DHT22;3765;47.962;7.952;2023-03-01T05:01:44;2.20;64.90
7447;DHT22;3765;47.962;7.952;2023-03-01T05:04:16;2.10;64.80
7447;DHT22;3765;47.962;7.952;2023-03-01T05:06:47;2.10;65.00
7447;DHT22;3765;47.962;7.952;2023-03-01T05:09:18;2.30;65.00
7447;DHT22;3765;47.962;7.952;2023-03-01T05:11:46;2.30;64.90
7447;DHT22;3765;47.962;7.952;2023-03-01T05:14:18;2.30;64.90
7447;DHT22;3765;47.962;7.952;2023-03-01T05:16:49;2.30;64.90
7447;DHT22;3765;47.962;7.952;2023-03-01T05:19:23;2.30;64.70
7447;DHT22;3765;47.962;7.952;2023-03-01T05:21:57;2.40;64.90
7447;DHT22;3765;47.962;7.952;2023-03-01T05:24:44;2.40;64.70
7447;DHT22;3765;47.962;7.952;2023-03-01T05:27:15;2.30;64.70
7447;DHT22;3765;47.962;7.952;2023-03-01T05:29:51;2.30;64.50
7447;DHT22;3765;47.962;7.952;2023-03-01T05:32:22;2.40;64.60
7447;DHT22;3765;47.962;7.952;2023-03-01T05:34:57;2.40;64.50
7447;DHT22;3765;47.962;7.952;2023-03-01T05:37:29;2.40;64.50
7447;DHT22;3765;47.962;7.952;2023-03-01T05:39:57;2.60;64.50
7447;DHT22;3765;47.962;7.952;2023-03-01T05:42:28;2.50;64.20
7447;DHT22;3765;47.962;7.952;2023-03-01T05:44:59;2.40;64.10
7447;DHT22;3765;47.962;7.952;2023-03-01T05:47:29;2.40;64.10
7447;DHT22;3765;47.962;7.952;2023-03-01T05:50:04;2.40;64.20
7447;DHT22;3765;47.962;7.952;2023-03-01T05:52:34;2.40;64.20
7447;DHT22;3765;47.962;7.952;2023-03-01T05:55:08;2.40;64.00
7447;DHT22;3765;47.962;7.952;2023-03-01T05:57:46;2.40;64.20
7447;DHT22;3765;47.962;7.952;2023-03-01T06:00:23;2.50;64.20
7447;DHT22;3765;47.962;7.952;2023-03-01T06:02:55;2.50;64.10
7447;DHT22;3765;47.962;7.952;2023-03-01T06:05:31;2.50;64.20
7447;DHT22;3765;47.962;7.952;2023-03-01T06:08:02;2.60;64.20
7447;DHT22;3765;47.962;7.952;2023-03-01T06:10:38;2.60;64.10
7447;DHT22;3765;47.962;7.952;2023-03-01T06:13:09;2.60;64.00
7447;DHT22;3765;47.962;7.952;2023-03-01T06:15:40;2.60;64.00
7447;DHT22;3765;47.962;7.952;2023-03-01T06:18:08;2.60;63.90
7447;DHT22;3765;47.962;7.952;2023-03-01T06:20:56;2.60;63.90
7447;DHT22;3765;47.962;7.952;2023-03-01T06:23:35;2.50;63.90
7447;DHT22;3765;47.962;7.952;2023-03-01T06:26:13;2.60;63.90
7447;DHT22;3765;47.962;7.952;2023-03-01T06:28:53;2.50;63.60
7447;DHT22;3765;47.962;7.952;2023-03-01T06:31:28;2.60;63.80
7447;DHT22;3765;47.962;7.952;2023-03-01T06:34:02;2.50;63.60
7447;DHT22;3765;47.962;7.952;2023-03-01T06:36:45;2.50;63.70
7447;DHT22;3765;47.962;7.952;2023-03-01T06:39:18;2.60;63.80
7447;DHT22;3765;47.962;7.952;2023-03-01T06:41:48;2.70;63.80
7447;DHT22;3765;47.962;7.952;2023-03-01T06:44:29;2.70;63.70
7447;DHT22;3765;47.962;7.952;2023-03-01T06:47:09;2.60;63.60
7447;DHT22;3765;47.962;7.952;2023-03-01T06:49:37;2.70;63.80
7447;DHT22;3765;47.962;7.952;2023-03-01T06:52:06;2.80;63.70
7447;DHT22;3765;47.962;7.952;2023-03-01T06:54:36;2.80;63.50
7447;DHT22;3765;47.962;7.952;2023-03-01T06:57:04;2.80;63.50
7447;DHT22;3765;47.962;7.952;2023-03-01T06:59:32;2.70;63.40
7447;DHT22;3765;47.962;7.952;2023-03-01T07:02:00;2.70;63.40
7447;DHT22;3765;47.962;7.952;2023-03-01T07:04:28;2.60;63.60
7447;DHT22;3765;47.962;7.952;2023-03-01T07:06:57;2.70;63.50
7447;DHT22;3765;47.962;7.952;2023-03-01T07:09:27;2.70;63.30
7447;DHT22;3765;47.962;7.952;2023-03-01T07:11:56;2.60;63.10
7447;DHT22;3765;47.962;7.952;2023-03-01T07:14:24;2.60;63.40
7447;DHT22;3765;47.962;7.952;2023-03-01T07:16:53;2.70;63.50
7447;DHT22;3765;47.962;7.952;2023-03-01T07:19:22;2.80;63.50
7447;DHT22;3765;47.962;7.952;2023-03-01T07:21:51;2.90;63.40
7447;DHT22;3765;47.962;7.952;2023-03-01T07:24:19;2.90;63.30
7447;DHT22;3765;47.962;7.952;2023-03-01T07:26:49;2.90;63.20
7447;DHT22;3765;47.962;7.952;2023-03-01T07:29:18;2.80;63.10
7447;DHT22;3765;47.962;7.952;2023-03-01T07:31:46;2.70;63.00
7447;DHT22;3765;47.962;7.952;2023-03-01T07:34:14;2.70;63.10
7447;DHT22;3765;47.962;7.952;2023-03-01T07:36:42;2.80;63.20
7447;DHT22;3765;47.962;7.952;2023-03-01T07:39:12;3.00;63.10
7447;DHT22;3765;47.962;7.952;2023-03-01T07:41:40;3.00;63.00
7447;DHT22;3765;47.962;7.952;2023-03-01T07:44:09;2.90;62.90
7447;DHT22;3765;47.962;7.952;2023-03-01T07:46:38;3.00;63.00
7447;DHT22;3765;47.962;7.952;2023-03-01T07:49:06;3.10;63.00
7447;DHT22;3765;47.962;7.952;2023-03-01T07:51:34;3.10;62.80
7447;DHT22;3765;47.962;7.952;2023-03-01T07:54:02;3.10;62.70
7447;DHT22;3765;47.962;7.952;2023-03-01T07:56:30;3.00;62.50
7447;DHT22;3765;47.962;7.952;2023-03-01T07:58:59;2.90;62.50
7447;DHT22;3765;47.962;7.952;2023-03-01T08:01:29;2.90;62.70
7447;DHT22;3765;47.962;7.952;2023-03-01T08:03:57;3.00;62.70
7447;DHT22;3765;47.962;7.952;2023-03-01T08:06:25;3.20;62.60
7447;DHT22;3765;47.962;7.952;2023-03-01T08:08:53;3.30;62.50
7447;DHT22;3765;47.962;7.952;2023-03-01T08:11:22;3.30;62.50
7447;DHT22;3765;47.962;7.952;2023-03-01T08:13:50;3.40;62.20
7447;DHT22;3765;47.962;7.952;2023-03-01T08:16:20;3.40;62.10
7447;DHT22;3765;47.962;7.952;2023-03-01T08:18:49;3.20;61.80
7447;DHT22;3765;47.962;7.952;2023-03-01T08:21:18;3.20;62.30
7447;DHT22;3765;47.962;7.952;2023-03-01T08:23:46;3.30;62.00
7447;DHT22;3765;47.962;7.952;2023-03-01T08:26:16;3.30;62.00
7447;DHT22;3765;47.962;7.952;2023-03-01T08:28:46;3.30;62.00
7447;DHT22;3765;47.962;7.952;2023-03-01T08:31:18;3.50;62.10
7447;DHT22;3765;47.962;7.952;2023-03-01T08:33:49;3.60;61.80
7447;DHT22;3765;47.962;7.952;2023-03-01T08:36:23;3.50;61.80
7447;DHT22;3765;47.962;7.952;2023-03-01T08:38:51;3.70;61.80
7447;DHT22;3765;47.962;7.952;2023-03-01T08:41:20;3.70;61.50
7447;DHT22;3765;47.962;7.952;2023-03-01T08:43:48;3.80;61.80
7447;DHT22;3765;47.962;7.952;2023-03-01T08:46:16;3.80;61.50
7447;DHT22;3765;47.962;7.952;2023-03-01T08:48:44;3.90;61.40
7447;DHT22;3765;47.962;7.952;2023-03-01T08:51:15;3.90;61.20
7447;DHT22;3765;47.962;7.952;2023-03-01T08:53:46;3.80;61.20
7447;DHT22;3765;47.962;7.952;2023-03-01T08:56:15;3.90;61.10
7447;DHT22;3765;47.962;7.952;2023-03-01T08:58:44;4.10;61.10
7447;DHT22;3765;47.962;7.952;2023-03-01T09:01:14;4.10;60.80
7447;DHT22;3765;47.962;7.952;2023-03-01T09:03:43;3.90;60.80
7447;DHT22;3765;47.962;7.952;2023-03-01T09:06:14;4.10;60.70
7447;DHT22;3765;47.962;7.952;2023-03-01T09:08:43;3.90;60.40
7447;DHT22;3765;47.962;7.952;2023-03-01T09:11:27;3.90;60.70
7447;DHT22;3765;47.962;7.952;2023-03-01T09:13:57;3.90;60.40
7447;DHT22;3765;47.962;7.952;2023-03-01T09:16:25;4.00;60.50
7447;DHT22;3765;47.962;7.952;2023-03-01T09:18:54;3.90;60.10
7447;DHT22;3765;47.962;7.952;2023-03-01T09:21:24;4.00;60.40
7447;DHT22;3765;47.962;7.952;2023-03-01T09:24:07;4.10;60.40
7447;DHT22;3765;47.962;7.952;2023-03-01T09:26:40;4.20;60.30
7447;DHT22;3765;47.962;7.952;2023-03-01T09:29:08;4.40;60.20
7447;DHT22;3765;47.962;7.952;2023-03-01T09:31:37;4.50;59.80
7447;DHT22;3765;47.962;7.952;2023-03-01T09:34:06;4.30;59.70
7447;DHT22;3765;47.962;7.952;2023-03-01T09:36:36;4.40;60.00
7447;DHT22;3765;47.962;7.952;2023-03-01T09:39:05;4.60;59.40
7447;DHT22;3765;47.962;7.952;2023-03-01T09:41:45;4.60;59.50
7447;DHT22;3765;47.962;7.952;2023-03-01T09:44:31;4.60;59.30
7447;DHT22;3765;47.962;7.952;2023-03-01T09:47:02;4.60;59.50
7447;DHT22;3765;47.962;7.952;2023-03-01T09:49:33;4.60;59.10
7447;DHT22;3765;47.962;7.952;2023-03-01T09:52:06;4.60;59.10
7447;DHT22;3765;47.962;7.952;2023-03-01T09:54:37;4.70;59.10
7447;DHT22;3765;47.962;7.952;2023-03-01T09:57:12;4.60;59.00
7447;DHT22;3765;47.962;7.952;2023-03-01T09:59:52;4.70;59.10
7447;DHT22;3765;47.962;7.952;2023-03-01T10:02:29;4.60;58.80
7447;DHT22;3765;47.962;7.952;2023-03-01T10:05:10;4.40;58.60
7447;DHT22;3765;47.962;7.952;2023-03-01T10:07:49;4.40;58.90
7447;DHT22;3765;47.962;7.952;2023-03-01T10:10:26;4.30;59.00
7447;DHT22;3765;47.962;7.952;2023-03-01T10:12:56;4.60;59.20
7447;DHT22;3765;47.962;7.952;2023-03-01T10:15:30;4.60;59.00
7447;DHT22;3765;47.962;7.952;2023-03-01T10:18:05;4.80;58.60
7447;DHT22;3765;47.962;7.952;2023-03-01T10:20:42;4.60;58.50
7447;DHT22;3765;47.962;7.952;2023-03-01T10:23:14;4.70;58.60
7447;DHT22;3765;47.962;7.952;2023-03-01T10:25:51;4.80;58.50
7447;DHT22;3765;47.962;7.952;2023-03-01T10:28:27;4.90;58.50
7447;DHT22;3765;47.962;7.952;2023-03-01T10:30:58;4.90;58.30
7447;DHT22;3765;47.962;7.952;2023-03-01T10:33:29;5.10;58.50
7447;DHT22;3765;47.962;7.952;2023-03-01T10:35:58;5.00;58.30
7447;DHT22;3765;47.962;7.952;2023-03-01T10:38:30;5.00;58.20
7447;DHT22;3765;47.962;7.952;2023-03-01T10:41:04;5.30;58.30
7447;DHT22;3765;47.962;7.952;2023-03-01T10:43:44;5.30;58.10
7447;DHT22;3765;47.962;7.952;2023-03-01T10:46:24;5.30;57.90
7447;DHT22;3765;47.962;7.952;2023-03-01T10:49:15;5.20;58.00
7447;DHT22;3765;47.962;7.952;2023-03-01T10:51:45;5.40;57.70
7447;DHT22;3765;47.962;7.952;2023-03-01T10:54:21;5.40;57.50
7447;DHT22;3765;47.962;7.952;2023-03-01T10:56:51;5.30;57.40
7447;DHT22;3765;47.962;7.952;2023-03-01T10:59:25;5.30;57.70
7447;DHT22;3765;47.962;7.952;2023-03-01T11:02:16;5.50;57.70
7447;DHT22;3765;47.962;7.952;2023-03-01T11:04:58;5.50;57.40
7447;DHT22;3765;47.962;7.952;2023-03-01T11:07:27;5.50;57.40
7447;DHT22;3765;47.962;7.952;2023-03-01T11:09:56;5.80;57.20
7447;DHT22;3765;47.962;7.952;2023-03-01T11:12:25;5.80;57.00
7447;DHT22;3765;47.962;7.952;2023-03-01T11:14:55;5.80;57.10
7447;DHT22;3765;47.962;7.952;2023-03-01T11:17:27;6.10;57.00
7447;DHT22;3765;47.962;7.952;2023-03-01T11:20:06;6.10;56.70
7447;DHT22;3765;47.962;7.952;2023-03-01T11:22:46;5.90;56.30
7447;DHT22;3765;47.962;7.952;2023-03-01T11:25:19;6.00;56.40
7447;DHT22;3765;47.962;7.952;2023-03-01T11:27:47;5.90;55.80
7447;DHT22;3765;47.962;7.952;2023-03-01T11:30:20;6.00;56.20
7447;DHT22;3765;47.962;7.952;2023-03-01T11:32:56;6.10;56.00
7447;DHT22;3765;47.962;7.952;2023-03-01T11:35:28;5.90;55.90
7447;DHT22;3765;47.962;7.952;2023-03-01T11:38:09;6.10;56.10
7447;DHT22;3765;47.962;7.952;2023-03-01T11:40:47;6.10;56.00
7447;DHT22;3765;47.962;7.952;2023-03-01T11:43:28;6.00;55.70
7447;DHT22;3765;47.962;7.952;2023-03-01T11:49:29;6.10;55.40
7447;DHT22;3765;47.962;7.952;2023-03-01T11:52:03;6.00;55.80
7447;DHT22;3765;47.962;7.952;2023-03-01T11:54:44;6.10;55.60
7447;DHT22;3765;47.962;7.952;2023-03-01T11:57:30;6.00;55.80
7447;DHT22;3765;47.962;7.952;2023-03-01T12:00:37;6.00;55.80
7447;DHT22;3765;47.962;7.952;2023-03-01T12:03:23;6.20;55.50
7447;DHT22;3765;47.962;7.952;2023-03-01T12:06:23;6.30;55.60
7447;DHT22;3765;47.962;7.952;2023-03-01T12:09:02;6.40;55.10
7447;DHT22;3765;47.962;7.952;2023-03-01T12:11:41;6.40;55.00
7447;DHT22;3765;47.962;7.952;2023-03-01T12:14:40;6.40;55.00
7447;DHT22;3765;47.962;7.952;2023-03-01T12:17:33;6.30;54.90
7447;DHT22;3765;47.962;7.952;2023-03-01T12:20:24;6.30;55.10
7447;DHT22;3765;47.962;7.952;2023-03-01T12:23:17;6.40;54.90
7447;DHT22;3765;47.962;7.952;2023-03-01T12:25:55;6.60;54.70
7447;DHT22;3765;47.962;7.952;2023-03-01T12:31:48;6.30;54.70
7447;DHT22;3765;47.962;7.952;2023-03-01T12:34:44;6.10;54.40
7447;DHT22;3765;47.962;7.952;2023-03-01T12:37:25;6.30;54.80
7447;DHT22;3765;47.962;7.952;2023-03-01T12:40:21;6.30;54.70
7447;DHT22;3765;47.962;7.952;2023-03-01T12:42:58;6.50;54.60
7447;DHT22;3765;47.962;7.952;2023-03-01T12:45:39;6.40;54.60
7447;DHT22;3765;47.962;7.952;2023-03-01T12:48:31;6.40;54.40
7447;DHT22;3765;47.962;7.952;2023-03-01T12:51:06;6.30;54.30
7447;DHT22;3765;47.962;7.952;2023-03-01T12:53:40;6.40;54.50
7447;DHT22;3765;47.962;7.952;2023-03-01T12:56:11;6.60;54.30
7447;DHT22;3765;47.962;7.952;2023-03-01T12:58:45;6.80;54.40
7447;DHT22;3765;47.962;7.952;2023-03-01T13:01:33;6.80;54.20
7447;DHT22;3765;47.962;7.952;2023-03-01T13:04:20;6.90;54.10
7447;DHT22;3765;47.962;7.952;2023-03-01T13:07:19;6.80;54.10
7447;DHT22;3765;47.962;7.952;2023-03-01T13:09:52;6.80;54.10
7447;DHT22;3765;47.962;7.952;2023-03-01T13:12:52;6.80;53.90
7447;DHT22;3765;47.962;7.952;2023-03-01T13:15:36;6.70;53.90
7447;DHT22;3765;47.962;7.952;2023-03-01T13:18:29;6.90;54.20
7447;DHT22;3765;47.962;7.952;2023-03-01T13:21:02;7.10;52.90
7447;DHT22;3765;47.962;7.952;2023-03-01T13:23:35;6.70;53.50
7447;DHT22;3765;47.962;7.952;2023-03-01T13:26:10;6.40;53.40
7447;DHT22;3765;47.962;7.952;2023-03-01T13:34:43;6.40;53.90
7447;DHT22;3765;47.962;7.952;2023-03-01T13:37:20;6.30;53.90
7447;DHT22;3765;47.962;7.952;2023-03-01T13:39:49;6.10;53.90
7447;DHT22;3765;47.962;7.952;2023-03-01T13:42:32;6.10;54.20
7447;DHT22;3765;47.962;7.952;2023-03-01T13:45:00;6.30;54.30
7447;DHT22;3765;47.962;7.952;2023-03-01T13:47:29;6.40;54.40
7447;DHT22;3765;47.962;7.952;2023-03-01T13:50:02;6.80;54.10
7447;DHT22;3765;47.962;7.952;2023-03-01T13:52:38;6.90;53.80
7447;DHT22;3765;47.962;7.952;2023-03-01T13:55:17;6.80;53.70
7447;DHT22;3765;47.962;7.952;2023-03-01T13:57:48;6.90;53.90
7447;DHT22;3765;47.962;7.952;2023-03-01T14:00:41;7.10;53.80
7447;DHT22;3765;47.962;7.952;2023-03-01T14:03:13;7.30;53.10
7447;DHT22;3765;47.962;7.952;2023-03-01T14:05:58;7.30;53.30
7447;DHT22;3765;47.962;7.952;2023-03-01T14:08:40;7.10;53.30
7447;DHT22;3765;47.962;7.952;2023-03-01T14:14:42;7.80;52.80
7447;DHT22;3765;47.962;7.952;2023-03-01T14:17:27;8.10;52.40
7447;DHT22;3765;47.962;7.952;2023-03-01T14:20:02;8.10;51.80
7447;DHT22;3765;47.962;7.952;2023-03-01T14:22:35;7.80;52.00
7447;DHT22;3765;47.962;7.952;2023-03-01T14:25:06;7.60;52.20
7447;DHT22;3765;47.962;7.952;2023-03-01T14:27:44;8.10;52.00
7447;DHT22;3765;47.962;7.952;2023-03-01T14:30:15;8.30;51.80
7447;DHT22;3765;47.962;7.952;2023-03-01T14:32:52;8.50;51.80
7447;DHT22;3765;47.962;7.952;2023-03-01T14:35:23;8.80;51.40
7447;DHT22;3765;47.962;7.952;2023-03-01T14:37:53;8.60;51.10
7447;DHT22;3765;47.962;7.952;2023-03-01T14:40:25;8.50;51.00
7447;DHT22;3765;47.962;7.952;2023-03-01T14:42:56;8.40;51.10
7447;DHT22;3765;47.962;7.952;2023-03-01T14:45:26;8.70;51.20
7447;DHT22;3765;47.962;7.952;2023-03-01T14:47:59;9.30;50.70
7447;DHT22;3765;47.962;7.952;2023-03-01T14:50:30;9.70;50.20
7447;DHT22;3765;47.962;7.952;2023-03-01T14:53:02;10.00;50.00
7447;DHT22;3765;47.962;7.952;2023-03-01T14:55:33;10.10;49.40
7447;DHT22;3765;47.962;7.952;2023-03-01T14:58:03;9.80;49.20
7447;DHT22;3765;47.962;7.952;2023-03-01T15:00:33;9.70;49.60
7447;DHT22;3765;47.962;7.952;2023-03-01T15:03:07;10.00;49.10
7447;DHT22;3765;47.962;7.952;2023-03-01T15:05:41;10.10;49.00
7447;DHT22;3765;47.962;7.952;2023-03-01T15:08:18;10.30;48.50
7447;DHT22;3765;47.962;7.952;2023-03-01T15:10:57;10.30;48.50
7447;DHT22;3765;47.962;7.952;2023-03-01T15:13:28;10.20;48.10
7447;DHT22;3765;47.962;7.952;2023-03-01T15:16:08;10.30;48.40
7447;DHT22;3765;47.962;7.952;2023-03-01T15:18:38;10.60;47.90
7447;DHT22;3765;47.962;7.952;2023-03-01T15:21:16;10.60;47.70
7447;DHT22;3765;47.962;7.952;2023-03-01T15:23:50;10.70;47.40
7447;DHT22;3765;47.962;7.952;2023-03-01T15:26:28;10.30;47.60
7447;DHT22;3765;47.962;7.952;2023-03-01T15:28:59;10.30;47.70
7447;DHT22;3765;47.962;7.952;2023-03-01T15:31:29;10.30;47.60
7447;DHT22;3765;47.962;7.952;2023-03-01T15:34:10;10.10;47.50
7447;DHT22;3765;47.962;7.952;2023-03-01T15:36:42;10.00;47.50
7447;DHT22;3765;47.962;7.952;2023-03-01T15:39:32;9.90;47.70
7447;DHT22;3765;47.962;7.952;2023-03-01T15:42:06;9.60;47.90
7447;DHT22;3765;47.962;7.952;2023-03-01T15:44:36;9.40;48.10
7447;DHT22;3765;47.962;7.952;2023-03-01T15:47:26;9.30;48.40
7447;DHT22;3765;47.962;7.952;2023-03-01T15:49:55;9.00;48.70
7447;DHT22;3765;47.962;7.952;2023-03-01T15:52:26;8.90;48.70
7447;DHT22;3765;47.962;7.952;2023-03-01T15:55:03;8.80;49.00
7447;DHT22;3765;47.962;7.952;2023-03-01T15:57:32;8.70;49.00
7447;DHT22;3765;47.962;7.952;2023-03-01T16:00:00;8.60;49.20
7447;DHT22;3765;47.962;7.952;2023-03-01T16:02:38;8.30;49.30
7447;DHT22;3765;47.962;7.952;2023-03-01T16:05:16;8.40;49.40
7447;DHT22;3765;47.962;7.952;2023-03-01T16:07:45;8.30;49.60
7447;DHT22;3765;47.962;7.952;2023-03-01T16:10:15;8.40;49.60
7447;DHT22;3765;47.962;7.952;2023-03-01T16:12:43;8.40;49.60
7447;DHT22;3765;47.962;7.952;2023-03-01T16:15:15;8.30;49.70
7447;DHT22;3765;47.962;7.952;2023-03-01T16:17:45;8.20;49.90
7447;DHT22;3765;47.962;7.952;2023-03-01T16:20:13;8.10;50.00
7447;DHT22;3765;47.962;7.952;2023-03-01T16:22:54;8.10;50.10
7447;DHT22;3765;47.962;7.952;2023-03-01T16:25:24;7.90;50.20
7447;DHT22;3765;47.962;7.952;2023-03-01T16:27:52;7.80;50.40
7447;DHT22;3765;47.962;7.952;2023-03-01T16:30:24;7.70;50.60
7447;DHT22;3765;47.962;7.952;2023-03-01T16:32:53;7.60;50.70
7447;DHT22;3765;47.962;7.952;2023-03-01T16:35:22;7.60;50.90
7447;DHT22;3765;47.962;7.952;2023-03-01T16:37:55;7.50;51.00
7447;DHT22;3765;47.962;7.952;2023-03-01T16:40:29;7.30;51.10
7447;DHT22;3765;47.962;7.952;2023-03-01T16:42:59;7.30;51.30
7447;DHT22;3765;47.962;7.952;2023-03-01T16:45:33;7.30;51.40
7447;DHT22;3765;47.962;7.952;2023-03-01T16:48:02;7.20;51.60
7447;DHT22;3765;47.962;7.952;2023-03-01T16:50:31;7.10;51.70
7447;DHT22;3765;47.962;7.952;2023-03-01T16:52:59;7.10;51.80
7447;DHT22;3765;47.962;7.952;2023-03-01T16:55:29;7.00;51.90
7447;DHT22;3765;47.962;7.952;2023-03-01T16:57:58;6.90;52.00
7447;DHT22;3765;47.962;7.952;2023-03-01T17:00:26;6.80;52.20
7447;DHT22;3765;47.962;7.952;2023-03-01T17:02:54;6.80;52.30
7447;DHT22;3765;47.962;7.952;2023-03-01T17:05:23;6.60;52.40
7447;DHT22;3765;47.962;7.952;2023-03-01T17:07:52;6.50;52.60
7447;DHT22;3765;47.962;7.952;2023-03-01T17:10:22;6.40;52.90
7447;DHT22;3765;47.962;7.952;2023-03-01T17:12:52;6.50;53.00
7447;DHT22;3765;47.962;7.952;2023-03-01T17:15:20;6.50;53.00
7447;DHT22;3765;47.962;7.952;2023-03-01T17:17:49;6.40;53.10
7447;DHT22;3765;47.962;7.952;2023-03-01T17:20:18;6.40;53.10